Thassos I — SVA2081 — position and weather

sailwx.info

Track history (hours):
 
Tides and Currents Weather Stations Pressure Air Temp Water Temp Dewpoint Dewpoint Depression Visibility Wind Speed Wind Dir Waves Ship Positions

Thassos I

Last reported at 2018-Feb-21 18:08 UTC. Time now 2018-Feb-24 06:46 UTC.
Position N 38°02' E 023°30'.

Length 98 m; draft 2.4 m.

Type: Passenger vessel. MMSI: 239361400.

Date/timePositionNaut miles runAvg speedWind from/ knotsBaromVisibWave heightAir tempDewpointWater temp
2018-Feb-21 18:08N 38°02' E 023°30'0 0.3
2018-Feb-21 18:00N 38°02' E 023°30'0 0.0
2018-Feb-21 17:31N 38°02' E 023°30'0 0.0
2018-Feb-21 17:00N 38°02' E 023°30'0 0.0
2018-Feb-21 16:30N 38°02' E 023°30'0 0.0
2018-Feb-21 16:00N 38°02' E 023°30'0 0.0
2018-Feb-21 15:31N 38°02' E 023°30'0 0.0
2018-Feb-21 15:01N 38°02' E 023°30'0 0.0
2018-Feb-21 14:30N 38°02' E 023°30'0 0.0
2018-Feb-21 14:01N 38°02' E 023°30'0 0.0
2018-Feb-21 13:30N 38°02' E 023°30'0 0.0
2018-Feb-21 13:00N 38°02' E 023°30'0 0.0
2018-Feb-21 12:31N 38°02' E 023°30'0 0.0
2018-Feb-21 12:00N 38°02' E 023°30'0 0.0
2018-Feb-21 11:30N 38°02' E 023°30'0 0.0
2018-Feb-21 11:00N 38°02' E 023°30'0 0.0
2018-Feb-21 10:31N 38°02' E 023°30'0 0.0
2018-Feb-21 10:00N 38°02' E 023°30'0 0.0
2018-Feb-21 09:31N 38°02' E 023°30'0 0.0
2018-Feb-21 09:00N 38°02' E 023°30'0 0.0
2018-Feb-21 08:30N 38°02' E 023°30'0 0.0
2018-Feb-21 08:01N 38°02' E 023°30'0 0.0
2018-Feb-21 07:31N 38°02' E 023°30'0 0.0
2018-Feb-21 07:00N 38°02' E 023°30'3 5.2
2018-Feb-21 06:31N 38°00' E 023°33'4 8.5
2018-Feb-21 06:00N 37°57' E 023°35'5 9.5
2018-Feb-21 05:30N 37°53' E 023°38'510.6
2018-Feb-21 05:00N 37°48' E 023°41'510.5
2018-Feb-21 04:30N 37°43' E 023°44'151 8.6
2018-Feb-20 10:55N 40°11' E 024°27'3 6.8
2018-Feb-20 10:31N 40°13' E 024°25'510.2
2018-Feb-20 09:58N 40°18' E 024°28'510.4
2018-Feb-20 09:27N 40°23' E 024°31'510.4
2018-Feb-20 09:01N 40°27' E 024°34'4 7.2
2018-Feb-20 08:30N 40°30' E 024°32'5 9.8
2018-Feb-20 08:00N 40°34' E 024°29'510.3
2018-Feb-20 07:30N 40°39' E 024°28'510.2
2018-Feb-20 07:00N 40°44' E 024°31'3 6.5
2018-Feb-20 06:30N 40°46' E 024°35'0 0.0
2018-Feb-20 06:00N 40°46' E 024°35'  
Track history (hours):
 
Tides and Currents Weather Stations Pressure Air Temp Water Temp Dewpoint Dewpoint Depression Visibility Wind Speed Wind Dir Waves Ship Positions

Thassos I

Last reported at 2018-Feb-21 18:08 UTC. Time now 2018-Feb-24 06:46 UTC.
Position N 38°02' E 023°30'.

Length 98 m; draft 2.4 m.

Type: Passenger vessel. MMSI: 239361400.

Date/timePositionNaut miles runAvg speedWind from/ knotsBaromVisibWave heightAir tempDewpointWater temp
2018-Feb-21 18:08N 38°02' E 023°30'0 0.3
2018-Feb-21 18:00N 38°02' E 023°30'0 0.0
2018-Feb-21 17:31N 38°02' E 023°30'0 0.0
2018-Feb-21 17:00N 38°02' E 023°30'0 0.0
2018-Feb-21 16:30N 38°02' E 023°30'0 0.0
2018-Feb-21 16:00N 38°02' E 023°30'0 0.0
2018-Feb-21 15:31N 38°02' E 023°30'0 0.0
2018-Feb-21 15:01N 38°02' E 023°30'0 0.0
2018-Feb-21 14:30N 38°02' E 023°30'0 0.0
2018-Feb-21 14:01N 38°02' E 023°30'0 0.0
2018-Feb-21 13:30N 38°02' E 023°30'0 0.0
2018-Feb-21 13:00N 38°02' E 023°30'0 0.0
2018-Feb-21 12:31N 38°02' E 023°30'0 0.0
2018-Feb-21 12:00N 38°02' E 023°30'0 0.0
2018-Feb-21 11:30N 38°02' E 023°30'0 0.0
2018-Feb-21 11:00N 38°02' E 023°30'0 0.0
2018-Feb-21 10:31N 38°02' E 023°30'0 0.0
2018-Feb-21 10:00N 38°02' E 023°30'0 0.0
2018-Feb-21 09:31N 38°02' E 023°30'0 0.0
2018-Feb-21 09:00N 38°02' E 023°30'0 0.0
2018-Feb-21 08:30N 38°02' E 023°30'0 0.0
2018-Feb-21 08:01N 38°02' E 023°30'0 0.0
2018-Feb-21 07:31N 38°02' E 023°30'0 0.0
2018-Feb-21 07:00N 38°02' E 023°30'3 5.2
2018-Feb-21 06:31N 38°00' E 023°33'4 8.5
2018-Feb-21 06:00N 37°57' E 023°35'5 9.5
2018-Feb-21 05:30N 37°53' E 023°38'510.6
2018-Feb-21 05:00N 37°48' E 023°41'510.5
2018-Feb-21 04:30N 37°43' E 023°44'151 8.6
2018-Feb-20 10:55N 40°11' E 024°27'3 6.8
2018-Feb-20 10:31N 40°13' E 024°25'510.2
2018-Feb-20 09:58N 40°18' E 024°28'510.4
2018-Feb-20 09:27N 40°23' E 024°31'510.4
2018-Feb-20 09:01N 40°27' E 024°34'4 7.2
2018-Feb-20 08:30N 40°30' E 024°32'5 9.8
2018-Feb-20 08:00N 40°34' E 024°29'510.3
2018-Feb-20 07:30N 40°39' E 024°28'510.2
2018-Feb-20 07:00N 40°44' E 024°31'3 6.5
2018-Feb-20 06:30N 40°46' E 024°35'0 0.0
2018-Feb-20 06:00N 40°46' E 024°35'  

Dump ship's entire track history